Time;durP1;ratioP1;P1;durP2;ratioP2;P2;SDS_P1;SDS_P2;PMS_P1;PMS_P2;Temp;Humidity;BMP_temperature;BMP_pressure;BME280_temperature;BME280_humidity;BME280_pressure;Samples;Min_cycle;Max_cycle;Signal;HPM_P1;HPM_P2
2024/01/02 00:01:29;;;;;;;0.30;0.30;;;5.10;99.90;;;;;;4956567;29;20730;-60
2024/01/02 00:03:54;;;;;;;0.40;0.40;;;5.10;99.90;;;;;;4957275;29;20430;-60
2024/01/02 00:06:20;;;;;;;2.73;0.50;;;5.00;99.90;;;;;;4956188;28;20196;-60
2024/01/02 00:08:46;;;;;;;0.40;0.40;;;5.00;99.90;;;;;;4955451;29;20268;-60
2024/01/02 00:11:13;;;;;;;0.43;0.43;;;5.00;99.90;;;;;;4955151;29;20181;-61
2024/01/02 00:13:39;;;;;;;0.30;0.30;;;5.00;99.90;;;;;;4955502;29;20260;-60
2024/01/02 00:16:05;;;;;;;0.30;0.30;;;5.00;99.90;;;;;;4955373;28;20260;-61
2024/01/02 00:18:30;;;;;;;0.40;0.40;;;4.90;99.90;;;;;;4955620;29;20540;-60
2024/01/02 00:20:56;;;;;;;0.60;0.60;;;4.90;99.90;;;;;;4955068;29;20185;-60
2024/01/02 00:23:22;;;;;;;0.30;0.30;;;4.90;99.90;;;;;;4955375;29;20224;-61
2024/01/02 00:25:48;;;;;;;0.40;0.40;;;4.80;99.90;;;;;;4954428;28;20440;-61
2024/01/02 00:28:14;;;;;;;1.23;0.40;;;4.80;99.90;;;;;;4955482;29;20221;-61
2024/01/02 00:30:42;;;;;;;0.77;0.77;;;4.80;99.90;;;;;;4955210;29;20170;-61
2024/01/02 00:33:07;;;;;;;0.30;0.30;;;4.80;99.90;;;;;;4955277;29;20179;-61
2024/01/02 00:35:33;;;;;;;0.43;0.43;;;4.70;99.90;;;;;;4955889;28;20174;-61
2024/01/02 00:38:00;;;;;;;0.30;0.30;;;4.70;99.90;;;;;;4955730;29;20182;-61
2024/01/02 00:40:26;;;;;;;0.30;0.30;;;4.80;99.90;;;;;;4954896;29;20515;-61
2024/01/02 00:42:52;;;;;;;0.30;0.30;;;4.90;99.90;;;;;;4955012;29;20183;-61
2024/01/02 00:45:18;;;;;;;0.30;0.30;;;4.90;99.90;;;;;;4956947;28;20550;-60
2024/01/02 00:47:43;;;;;;;0.30;0.30;;;5.00;99.90;;;;;;4958930;28;20545;-60
2024/01/02 00:50:10;;;;;;;0.40;0.40;;;5.00;99.90;;;;;;4959259;29;20637;-61
2024/01/02 00:52:35;;;;;;;0.30;0.30;;;5.00;99.90;;;;;;4958677;29;20178;-61
2024/01/02 00:55:05;;;;;;;0.40;0.40;;;5.00;99.90;;;;;;4958664;29;20181;-60
2024/01/02 00:57:31;;;;;;;0.50;0.50;;;5.10;99.90;;;;;;4958746;28;20484;-61
2024/01/02 00:59:59;;;;;;;0.40;0.40;;;5.10;99.90;;;;;;4958088;29;20181;-61
2024/01/02 01:02:25;;;;;;;0.30;0.30;;;5.10;99.90;;;;;;4958890;29;20604;-60
2024/01/02 01:04:51;;;;;;;0.30;0.30;;;5.10;99.90;;;;;;4958809;29;20241;-60
2024/01/02 01:07:17;;;;;;;0.30;0.30;;;5.10;99.90;;;;;;4958896;28;20469;-60
2024/01/02 01:09:43;;;;;;;0.30;0.30;;;5.20;99.90;;;;;;4958619;29;20187;-60
2024/01/02 01:12:09;;;;;;;0.30;0.30;;;5.20;99.90;;;;;;4958356;29;20221;-60
2024/01/02 01:14:35;;;;;;;0.95;0.95;;;5.20;99.90;;;;;;4958479;29;20179;-61
2024/01/02 01:17:01;;;;;;;0.30;0.30;;;5.20;99.90;;;;;;4958371;28;20232;-61
2024/01/02 01:19:27;;;;;;;0.30;0.30;;;5.20;99.90;;;;;;4957953;29;20188;-60
2024/01/02 01:21:53;;;;;;;0.40;0.40;;;5.20;99.90;;;;;;4958266;29;20174;-60
2024/01/02 01:24:18;;;;;;;0.40;0.40;;;5.20;99.90;;;;;;4958434;29;20170;-61
2024/01/02 01:26:45;;;;;;;0.40;0.37;;;5.10;99.90;;;;;;4958198;28;20196;-61
2024/01/02 01:29:12;;;;;;;0.40;0.40;;;5.10;99.90;;;;;;4957791;29;20213;-60
2024/01/02 01:31:37;;;;;;;0.30;0.30;;;5.20;99.90;;;;;;4957364;29;20182;-60
2024/01/02 01:34:03;;;;;;;0.60;0.60;;;5.20;99.90;;;;;;4957867;29;20547;-60
2024/01/02 01:36:29;;;;;;;0.30;0.30;;;5.20;99.90;;;;;;4957720;28;20193;-60
2024/01/02 01:38:55;;;;;;;0.40;0.40;;;5.10;99.90;;;;;;4942211;29;20213;-61
2024/01/02 01:41:21;;;;;;;0.40;0.40;;;5.10;99.90;;;;;;4939054;29;20628;-60
2024/01/02 01:43:46;;;;;;;0.47;0.47;;;5.10;99.90;;;;;;4938617;29;20261;-59
2024/01/02 01:46:14;;;;;;;0.30;0.30;;;5.10;99.90;;;;;;4939524;29;20289;-60
2024/01/02 01:48:40;;;;;;;0.50;0.50;;;5.10;99.90;;;;;;4939297;29;20202;-60
2024/01/02 01:51:07;;;;;;;0.40;0.40;;;5.20;99.90;;;;;;4939836;29;20667;-60
2024/01/02 01:53:33;;;;;;;1.40;1.40;;;5.20;99.90;;;;;;4939859;29;20414;-60
2024/01/02 01:55:59;;;;;;;0.63;0.63;;;5.20;99.90;;;;;;4938318;29;20190;-60
2024/01/02 01:58:26;;;;;;;0.40;0.40;;;5.10;99.90;;;;;;4939322;29;20608;-61
2024/01/02 02:00:51;;;;;;;0.40;0.40;;;5.10;99.90;;;;;;4939604;29;20553;-61
2024/01/02 02:03:18;;;;;;;1.03;0.90;;;5.10;99.90;;;;;;4939186;29;20266;-60
2024/01/02 02:05:45;;;;;;;0.40;0.40;;;5.20;99.90;;;;;;4939216;29;20612;-60
2024/01/02 02:08:11;;;;;;;0.52;0.52;;;5.30;99.90;;;;;;4939470;29;20214;-61
2024/01/02 02:10:37;;;;;;;0.77;0.77;;;5.30;99.90;;;;;;4938470;29;20178;-61
2024/01/02 02:13:03;;;;;;;0.73;0.50;;;5.20;99.90;;;;;;4938866;29;20797;-60
2024/01/02 02:15:28;;;;;;;1.13;1.03;;;5.20;99.90;;;;;;4939139;29;20174;-60
2024/01/02 02:17:54;;;;;;;0.83;0.83;;;5.20;99.90;;;;;;4939184;29;20410;-60
2024/01/02 02:20:20;;;;;;;5.63;1.03;;;5.20;99.90;;;;;;4938718;29;20178;-60
2024/01/02 02:22:49;;;;;;;0.77;0.77;;;5.30;99.90;;;;;;4939002;29;20616;-60
2024/01/02 02:25:16;;;;;;;4.10;0.88;;;5.20;99.90;;;;;;4939354;29;20186;-60
2024/01/02 02:27:42;;;;;;;0.50;0.50;;;5.30;99.90;;;;;;4938910;29;20592;-60
2024/01/02 02:30:08;;;;;;;0.40;0.40;;;5.20;99.90;;;;;;4939424;29;20167;-61
2024/01/02 02:32:34;;;;;;;0.30;0.30;;;5.20;99.90;;;;;;4940048;29;20171;-61
2024/01/02 02:34:59;;;;;;;0.30;0.30;;;5.10;99.90;;;;;;4939507;29;20553;-60
2024/01/02 02:37:25;;;;;;;0.40;0.40;;;5.10;99.90;;;;;;4939982;29;20810;-61
2024/01/02 02:39:51;;;;;;;0.63;0.63;;;5.00;99.90;;;;;;4938910;29;20654;-61
2024/01/02 02:42:16;;;;;;;0.40;0.40;;;5.00;99.90;;;;;;4938933;29;20184;-60
2024/01/02 02:44:43;;;;;;;0.40;0.40;;;5.00;99.90;;;;;;4938925;29;20181;-60
2024/01/02 02:47:09;;;;;;;0.30;0.30;;;5.10;99.90;;;;;;4939287;29;20258;-60
2024/01/02 02:49:36;;;;;;;0.30;0.30;;;5.00;99.90;;;;;;4938635;29;20189;-60
2024/01/02 02:52:01;;;;;;;0.40;0.40;;;5.00;99.90;;;;;;4938731;29;20178;-60
2024/01/02 02:54:27;;;;;;;0.30;0.30;;;5.00;99.90;;;;;;4938852;29;20233;-60
2024/01/02 02:56:53;;;;;;;0.30;0.30;;;5.10;99.90;;;;;;4938145;29;20628;-60
2024/01/02 02:59:18;;;;;;;0.40;0.40;;;5.10;99.90;;;;;;4939099;29;20170;-60
2024/01/02 03:01:44;;;;;;;0.30;0.30;;;5.20;99.90;;;;;;4938591;29;20182;-60
2024/01/02 03:04:09;;;;;;;0.30;0.30;;;5.10;99.90;;;;;;4938265;29;20262;-60
2024/01/02 03:06:35;;;;;;;0.57;0.50;;;5.00;99.90;;;;;;4937769;29;20233;-60
2024/01/02 03:09:01;;;;;;;0.30;0.30;;;5.00;99.90;;;;;;4937003;29;20314;-60
2024/01/02 03:11:26;;;;;;;0.30;0.30;;;5.10;99.90;;;;;;4937709;29;20168;-61
2024/01/02 03:13:52;;;;;;;0.30;0.30;;;5.20;99.90;;;;;;4937516;29;20314;-60
2024/01/02 03:16:19;;;;;;;0.30;0.30;;;5.20;99.90;;;;;;4938917;29;20256;-60
2024/01/02 03:18:45;;;;;;;0.47;0.47;;;5.20;99.90;;;;;;4935954;29;20198;-60
2024/01/02 03:21:11;;;;;;;0.40;0.40;;;5.30;99.90;;;;;;4937254;29;20178;-61
2024/01/02 03:23:37;;;;;;;0.35;0.35;;;5.30;99.90;;;;;;4938787;29;20182;-60
2024/01/02 03:26:04;;;;;;;0.30;0.30;;;5.30;99.90;;;;;;4937594;29;20203;-60
2024/01/02 03:28:30;;;;;;;0.30;0.30;;;5.30;99.90;;;;;;4938205;29;20686;-60
2024/01/02 03:30:56;;;;;;;0.40;0.40;;;5.40;99.90;;;;;;4937394;29;20197;-60
2024/01/02 03:33:22;;;;;;;0.40;0.40;;;5.40;99.90;;;;;;4938106;29;20174;-60
2024/01/02 03:35:48;;;;;;;0.40;0.40;;;5.40;99.90;;;;;;4938983;29;20205;-60
2024/01/02 03:38:14;;;;;;;0.30;0.30;;;5.40;99.90;;;;;;4938950;29;20233;-60
2024/01/02 03:40:39;;;;;;;0.40;0.40;;;5.40;99.90;;;;;;4937505;29;20174;-60
2024/01/02 03:43:05;;;;;;;0.30;0.30;;;5.40;99.90;;;;;;4938917;29;20197;-60
2024/01/02 03:45:31;;;;;;;0.40;0.40;;;5.50;99.90;;;;;;4938227;29;20564;-60
2024/01/02 03:47:57;;;;;;;0.33;0.33;;;5.50;99.90;;;;;;4937843;29;20201;-60
2024/01/02 03:50:23;;;;;;;0.30;0.30;;;5.60;99.90;;;;;;4937650;29;20578;-61
2024/01/02 03:52:49;;;;;;;0.30;0.30;;;5.60;99.90;;;;;;4937491;29;20437;-60
2024/01/02 03:55:15;;;;;;;0.32;0.32;;;5.60;99.90;;;;;;4938232;29;20233;-60
2024/01/02 03:57:40;;;;;;;0.30;0.30;;;5.60;99.90;;;;;;4936883;29;20214;-60
2024/01/02 04:00:08;;;;;;;0.40;0.40;;;5.50;99.90;;;;;;4934432;29;20719;-60
2024/01/02 04:02:34;;;;;;;0.30;0.30;;;5.60;99.90;;;;;;4934352;29;20183;-60
2024/01/02 04:04:59;;;;;;;1.07;1.07;;;5.60;99.90;;;;;;4934469;29;20192;-60
2024/01/02 04:07:25;;;;;;;0.50;0.50;;;5.50;99.90;;;;;;4934326;29;20198;-59
2024/01/02 04:09:51;;;;;;;0.30;0.30;;;5.40;99.90;;;;;;4934368;29;20222;-60
2024/01/02 04:12:17;;;;;;;0.40;0.40;;;5.40;99.90;;;;;;4934388;29;20183;-60
2024/01/02 04:14:42;;;;;;;0.50;0.50;;;5.40;99.90;;;;;;4934447;29;20226;-60
2024/01/02 04:17:08;;;;;;;0.53;0.53;;;5.40;99.90;;;;;;4934323;29;20187;-60
2024/01/02 04:19:34;;;;;;;0.40;0.40;;;5.20;99.90;;;;;;4935198;29;20178;-60
2024/01/02 04:22:00;;;;;;;0.30;0.30;;;5.20;99.90;;;;;;4938273;29;20784;-60
2024/01/02 04:24:25;;;;;;;0.50;0.50;;;5.20;99.90;;;;;;4938494;29;20174;-60
2024/01/02 04:26:52;;;;;;;0.30;0.30;;;5.10;99.90;;;;;;4938318;29;20691;-59
2024/01/02 04:29:17;;;;;;;0.30;0.30;;;5.10;99.90;;;;;;4938119;29;20458;-60
2024/01/02 04:31:43;;;;;;;0.40;0.40;;;5.20;99.90;;;;;;4937867;29;20197;-59
2024/01/02 04:34:09;;;;;;;0.30;0.30;;;5.20;99.90;;;;;;4938112;29;20182;-60
2024/01/02 04:36:34;;;;;;;2.10;1.60;;;5.20;99.90;;;;;;4937984;29;20198;-61
2024/01/02 04:39:00;;;;;;;0.30;0.30;;;5.20;99.90;;;;;;4938038;29;20305;-61
2024/01/02 04:41:26;;;;;;;0.40;0.30;;;5.20;99.90;;;;;;4937798;29;20175;-61
2024/01/02 04:43:51;;;;;;;1.03;1.00;;;5.20;99.90;;;;;;4938006;29;20166;-61
2024/01/02 04:46:17;;;;;;;0.40;0.40;;;5.10;99.90;;;;;;4937910;29;20233;-61
2024/01/02 04:48:42;;;;;;;1.47;1.47;;;5.10;99.90;;;;;;4937713;29;20206;-60
2024/01/02 04:51:08;;;;;;;0.30;0.30;;;5.30;99.90;;;;;;4937579;29;20655;-61
2024/01/02 04:53:34;;;;;;;0.30;0.30;;;5.30;99.90;;;;;;4937997;29;20356;-61
2024/01/02 04:55:59;;;;;;;0.40;0.40;;;5.20;99.90;;;;;;4937706;29;20221;-61
2024/01/02 04:58:25;;;;;;;0.30;0.30;;;5.20;99.90;;;;;;4937728;29;20201;-61
2024/01/02 05:00:54;;;;;;;0.30;0.30;;;5.10;99.90;;;;;;4937369;29;20178;-60
2024/01/02 05:03:19;;;;;;;0.68;0.68;;;5.20;99.90;;;;;;4937531;29;20179;-61
2024/01/02 05:05:45;;;;;;;0.37;0.37;;;5.20;99.90;;;;;;4937537;29;20202;-61
2024/01/02 05:08:10;;;;;;;0.40;0.40;;;5.30;99.90;;;;;;4937473;29;20706;-61
2024/01/02 05:10:36;;;;;;;0.30;0.30;;;5.40;99.90;;;;;;4937200;29;20168;-61
2024/01/02 05:13:02;;;;;;;0.77;0.60;;;5.40;99.90;;;;;;4937565;29;20173;-60
2024/01/02 05:15:28;;;;;;;0.30;0.30;;;5.50;99.90;;;;;;4937344;29;20449;-60
2024/01/02 05:17:54;;;;;;;0.30;0.30;;;5.50;99.90;;;;;;4937369;29;20433;-61
2024/01/02 05:20:19;;;;;;;0.30;0.30;;;5.50;99.90;;;;;;4937180;29;20678;-61
2024/01/02 05:22:45;;;;;;;0.50;0.50;;;5.30;99.90;;;;;;4937175;29;20181;-61
2024/01/02 05:25:11;;;;;;;0.30;0.30;;;5.30;99.90;;;;;;4937271;29;20183;-61
2024/01/02 05:27:36;;;;;;;0.60;0.60;;;5.30;99.90;;;;;;4937135;29;20202;-60
2024/01/02 05:30:02;;;;;;;0.50;0.50;;;5.30;99.90;;;;;;4936932;29;20225;-61
2024/01/02 05:32:28;;;;;;;0.30;0.30;;;5.20;99.90;;;;;;4936873;29;20175;-60
2024/01/02 05:34:54;;;;;;;0.30;0.30;;;5.30;99.90;;;;;;4937038;29;20680;-61
2024/01/02 05:37:19;;;;;;;0.30;0.30;;;5.30;99.90;;;;;;4937026;29;20198;-61
2024/01/02 05:39:45;;;;;;;0.30;0.30;;;5.30;99.90;;;;;;4936974;29;20179;-61
2024/01/02 05:42:10;;;;;;;0.40;0.40;;;5.30;99.90;;;;;;4936752;29;20198;-61
2024/01/02 05:44:36;;;;;;;0.30;0.30;;;5.40;99.90;;;;;;4936870;29;20194;-60
2024/01/02 05:47:02;;;;;;;2.30;0.50;;;5.50;99.90;;;;;;4936583;29;20203;-61
2024/01/02 05:49:27;;;;;;;0.47;0.47;;;5.50;99.90;;;;;;4936758;29;20174;-61
2024/01/02 05:51:53;;;;;;;0.30;0.30;;;5.50;99.90;;;;;;4936503;29;20171;-61
2024/01/02 05:54:18;;;;;;;0.50;0.50;;;5.50;99.90;;;;;;4936716;29;20177;-61
2024/01/02 05:56:44;;;;;;;0.30;0.30;;;5.60;99.90;;;;;;4936525;29;20261;-61
2024/01/02 05:59:10;;;;;;;0.50;0.50;;;5.70;99.90;;;;;;4936644;29;20623;-61
2024/01/02 06:01:35;;;;;;;0.40;0.40;;;5.60;99.90;;;;;;4936236;29;20257;-60
2024/01/02 06:04:01;;;;;;;1.23;1.13;;;5.60;99.90;;;;;;4936685;29;20262;-61
2024/01/02 06:06:27;;;;;;;0.47;0.47;;;5.70;99.90;;;;;;4936405;29;20230;-60
2024/01/02 06:08:52;;;;;;;0.43;0.43;;;5.70;99.90;;;;;;4936366;29;20207;-60
2024/01/02 06:11:18;;;;;;;1.37;1.37;;;5.80;99.90;;;;;;4936573;29;20170;-61
2024/01/02 06:13:44;;;;;;;0.30;0.30;;;5.90;99.90;;;;;;4936421;29;20754;-60
2024/01/02 06:16:12;;;;;;;0.40;0.40;;;5.80;99.90;;;;;;4936180;29;20198;-60
2024/01/02 06:18:38;;;;;;;0.30;0.30;;;5.70;99.90;;;;;;4936264;29;20179;-61
2024/01/02 06:21:04;;;;;;;0.30;0.30;;;5.70;99.90;;;;;;4936075;29;20206;-61
2024/01/02 06:23:33;;;;;;;0.40;0.40;;;5.70;99.90;;;;;;4936607;29;20558;-61
2024/01/02 06:25:59;;;;;;;0.40;0.40;;;5.70;99.90;;;;;;4936079;29;20225;-60
2024/01/02 06:28:25;;;;;;;0.52;0.52;;;5.80;99.90;;;;;;4935883;29;20197;-61
2024/01/02 06:30:51;;;;;;;0.30;0.30;;;5.80;99.90;;;;;;4935773;29;20182;-60
2024/01/02 06:33:17;;;;;;;0.30;0.30;;;5.80;99.90;;;;;;4935994;29;20635;-61
2024/01/02 06:35:43;;;;;;;2.30;0.63;;;5.90;99.90;;;;;;4935940;29;20473;-62
2024/01/02 06:38:09;;;;;;;1.80;0.60;;;6.00;99.90;;;;;;4935912;29;20411;-61
2024/01/02 06:40:37;;;;;;;1.07;0.97;;;6.00;99.90;;;;;;4935935;29;20265;-61
2024/01/02 06:43:04;;;;;;;0.40;0.40;;;6.00;99.90;;;;;;4935190;29;20414;-60
2024/01/02 06:45:30;;;;;;;0.30;0.30;;;6.00;99.90;;;;;;4935806;29;20194;-60
2024/01/02 06:47:56;;;;;;;0.30;0.30;;;5.90;99.90;;;;;;4935678;29;20216;-60
2024/01/02 06:50:22;;;;;;;0.30;0.30;;;5.80;99.90;;;;;;4935520;29;20663;-63
2024/01/02 06:52:47;;;;;;;0.60;0.50;;;5.80;99.90;;;;;;4935553;29;20189;-60
2024/01/02 06:55:13;;;;;;;0.30;0.30;;;5.80;99.90;;;;;;4935646;29;20171;-61
2024/01/02 06:57:39;;;;;;;0.30;0.30;;;5.70;99.90;;;;;;4935292;29;20292;-60
2024/01/02 07:00:06;;;;;;;0.30;0.30;;;5.70;99.90;;;;;;4935400;29;20184;-60
2024/01/02 07:02:33;;;;;;;0.30;0.30;;;5.80;99.90;;;;;;4935304;29;20237;-60
2024/01/02 07:04:59;;;;;;;0.30;0.30;;;5.70;99.90;;;;;;4935548;29;20178;-61
2024/01/02 07:07:25;;;;;;;0.30;0.30;;;5.70;99.90;;;;;;4935701;29;20358;-61
2024/01/02 07:09:53;;;;;;;0.30;0.30;;;5.90;99.90;;;;;;4935202;29;20182;-61
2024/01/02 07:12:19;;;;;;;0.45;0.45;;;6.00;99.90;;;;;;4935019;29;20468;-61
2024/01/02 07:14:45;;;;;;;0.30;0.30;;;6.10;99.90;;;;;;4935280;29;20180;-61
2024/01/02 07:17:10;;;;;;;0.30;0.30;;;6.20;99.90;;;;;;4935144;29;20217;-61
2024/01/02 07:19:36;;;;;;;0.37;0.37;;;6.20;99.90;;;;;;4935125;29;20172;-61
2024/01/02 07:22:02;;;;;;;0.30;0.30;;;6.30;99.90;;;;;;4935334;29;20256;-61
2024/01/02 07:24:27;;;;;;;0.30;0.30;;;6.40;99.90;;;;;;4935162;29;20249;-61
2024/01/02 07:26:53;;;;;;;4.47;0.70;;;6.40;99.90;;;;;;4934923;29;20706;-61
2024/01/02 07:29:19;;;;;;;0.77;0.57;;;6.40;99.90;;;;;;4935147;29;20623;-61
2024/01/02 07:31:44;;;;;;;0.30;0.30;;;6.40;99.90;;;;;;4934681;29;20644;-60
2024/01/02 07:34:12;;;;;;;0.40;0.40;;;6.40;99.90;;;;;;4934936;29;20554;-64
2024/01/02 07:36:39;;;;;;;0.30;0.30;;;6.40;99.90;;;;;;4934878;29;20197;-60
2024/01/02 07:39:05;;;;;;;0.30;0.30;;;6.30;99.90;;;;;;4934803;29;20186;-61
2024/01/02 07:41:30;;;;;;;0.30;0.30;;;6.40;99.90;;;;;;4934450;29;20185;-60
2024/01/02 07:43:56;;;;;;;0.30;0.30;;;6.40;99.90;;;;;;4934792;29;20185;-61
2024/01/02 07:46:22;;;;;;;0.30;0.30;;;6.40;99.90;;;;;;4934544;29;20215;-61
2024/01/02 07:48:48;;;;;;;0.40;0.40;;;6.30;99.90;;;;;;4934471;29;20210;-59
2024/01/02 07:51:14;;;;;;;0.30;0.30;;;6.40;99.90;;;;;;4947675;29;20275;-61
2024/01/02 07:53:39;;;;;;;0.57;0.57;;;6.40;99.90;;;;;;4953371;28;20566;-60
2024/01/02 07:56:05;;;;;;;0.30;0.30;;;6.50;99.90;;;;;;4953239;28;20195;-61
2024/01/02 07:58:31;;;;;;;0.40;0.40;;;6.50;99.90;;;;;;4953514;29;20204;-61
2024/01/02 08:00:56;;;;;;;0.40;0.40;;;6.30;99.90;;;;;;4953325;29;20423;-60
2024/01/02 08:03:22;;;;;;;0.30;0.30;;;6.30;99.90;;;;;;4953667;29;20562;-61
2024/01/02 08:05:47;;;;;;;0.30;0.30;;;6.30;99.90;;;;;;4953521;28;20907;-61
2024/01/02 08:08:13;;;;;;;0.30;0.30;;;6.30;99.90;;;;;;4953537;29;20243;-61
2024/01/02 08:10:39;;;;;;;0.30;0.30;;;6.30;99.90;;;;;;4953107;29;20259;-61
2024/01/02 08:13:04;;;;;;;0.30;0.30;;;6.30;99.90;;;;;;4953571;29;20183;-61
2024/01/02 08:15:30;;;;;;;0.30;0.30;;;6.30;99.90;;;;;;4953494;28;20184;-61
2024/01/02 08:17:57;;;;;;;0.47;0.47;;;6.20;99.90;;;;;;4953488;29;20192;-62
2024/01/02 08:20:23;;;;;;;0.30;0.30;;;6.20;99.90;;;;;;4953348;29;20534;-59
2024/01/02 08:22:48;;;;;;;0.30;0.30;;;6.40;99.90;;;;;;4953514;29;20184;-61
2024/01/02 08:25:14;;;;;;;0.30;0.30;;;6.50;99.90;;;;;;4952933;29;20798;-61
2024/01/02 08:27:41;;;;;;;0.70;0.63;;;6.50;99.90;;;;;;4952411;28;20682;-61
2024/01/02 08:30:07;;;;;;;0.30;0.30;;;6.60;99.90;;;;;;4953104;29;20715;-60
2024/01/02 08:32:33;;;;;;;0.30;0.30;;;6.60;99.90;;;;;;4953131;29;20250;-61
2024/01/02 08:34:59;;;;;;;0.50;0.50;;;6.50;99.90;;;;;;4953095;29;20179;-61
2024/01/02 08:37:25;;;;;;;0.30;0.30;;;6.40;99.90;;;;;;4952781;28;20216;-61
2024/01/02 08:39:51;;;;;;;0.37;0.37;;;6.50;99.90;;;;;;4952999;29;20423;-61
2024/01/02 08:42:17;;;;;;;0.30;0.30;;;6.60;99.90;;;;;;4953155;29;20474;-61
2024/01/02 08:44:42;;;;;;;0.30;0.30;;;6.60;99.90;;;;;;4953260;29;20174;-60
2024/01/02 08:47:08;;;;;;;0.60;0.53;;;6.60;99.90;;;;;;4953059;28;21000;-60
2024/01/02 08:49:33;;;;;;;0.30;0.30;;;6.40;99.90;;;;;;4953200;29;20168;-61
2024/01/02 08:51:59;;;;;;;0.50;0.40;;;6.30;99.90;;;;;;4952991;29;20204;-61
2024/01/02 08:54:25;;;;;;;0.30;0.30;;;6.50;99.90;;;;;;4953135;29;20172;-60
2024/01/02 08:56:50;;;;;;;0.30;0.30;;;6.70;99.90;;;;;;4952723;28;20207;-60
2024/01/02 08:59:16;;;;;;;0.30;0.30;;;6.70;99.90;;;;;;4952880;29;20175;-61
2024/01/02 09:01:41;;;;;;;0.40;0.40;;;6.70;99.90;;;;;;4952799;29;20180;-60
2024/01/02 09:04:07;;;;;;;0.30;0.30;;;6.60;99.90;;;;;;4953124;29;20176;-60
2024/01/02 09:06:33;;;;;;;0.30;0.30;;;6.70;99.90;;;;;;4955240;28;20669;-61
2024/01/02 09:08:58;;;;;;;0.40;0.40;;;6.70;99.90;;;;;;4956465;29;20232;-61
2024/01/02 09:11:24;;;;;;;0.30;0.30;;;6.80;99.90;;;;;;4956178;29;20230;-61
2024/01/02 09:13:50;;;;;;;0.40;0.40;;;6.80;99.90;;;;;;4951501;29;20682;-61
2024/01/02 09:16:15;;;;;;;0.40;0.40;;;7.00;99.90;;;;;;4918226;29;20567;-61
2024/01/02 09:18:41;;;;;;;0.30;0.30;;;7.00;99.90;;;;;;4918364;29;20177;-60
2024/01/02 09:21:07;;;;;;;0.30;0.30;;;6.90;99.90;;;;;;4917971;29;20178;-60
2024/01/02 09:23:36;;;;;;;0.40;0.40;;;7.00;99.90;;;;;;4918224;29;20186;-61
2024/01/02 09:26:05;;;;;;;0.50;0.40;;;7.00;99.90;;;;;;4918118;29;20700;-60
2024/01/02 09:28:34;;;;;;;0.40;0.40;;;7.10;99.90;;;;;;4918198;29;20633;-60
2024/01/02 09:31:00;;;;;;;0.30;0.30;;;7.20;99.90;;;;;;4917275;29;20181;-60
2024/01/02 09:33:27;;;;;;;0.40;0.40;;;7.10;99.90;;;;;;4917041;29;20265;-59
2024/01/02 09:35:53;;;;;;;0.40;0.40;;;7.20;99.90;;;;;;4917575;29;20458;-60
2024/01/02 09:38:18;;;;;;;0.30;0.30;;;7.10;99.90;;;;;;4917852;29;20191;-60
2024/01/02 09:41:04;;;;;;;0.63;0.63;;;7.10;99.90;;;;;;4917555;29;20478;-60
2024/01/02 09:43:57;;;;;;;0.40;0.40;;;7.00;99.90;;;;;;4918516;29;20428;-60
2024/01/02 09:46:39;;;;;;;0.40;0.40;;;7.00;99.90;;;;;;4927611;29;20205;-60
2024/01/02 09:49:25;;;;;;;0.30;0.30;;;7.10;99.90;;;;;;4917790;29;20704;-60
2024/01/02 09:52:22;;;;;;;0.35;0.35;;;7.20;99.90;;;;;;4917560;29;20178;-61
2024/01/02 09:55:03;;;;;;;0.50;0.50;;;7.30;99.90;;;;;;4917640;29;20182;-60
2024/01/02 09:57:40;;;;;;;0.30;0.30;;;7.20;99.90;;;;;;4917658;29;20221;-62
2024/01/02 10:00:20;;;;;;;0.30;0.30;;;7.20;99.90;;;;;;4917681;29;20202;-61
2024/01/02 10:02:46;;;;;;;0.30;0.30;;;7.10;99.90;;;;;;4917591;29;20303;-61
2024/01/02 10:05:23;;;;;;;0.30;0.30;;;6.90;99.90;;;;;;4917612;29;20290;-60
2024/01/02 10:08:20;;;;;;;0.50;0.50;;;6.90;99.90;;;;;;4917615;29;20237;-61
2024/01/02 10:11:00;;;;;;;0.60;0.60;;;6.90;99.90;;;;;;4917256;29;20178;-61
2024/01/02 10:14:01;;;;;;;1.02;0.57;;;6.70;99.90;;;;;;4917439;29;20219;-61
2024/01/02 10:16:48;;;;;;;0.40;0.40;;;6.90;99.90;;;;;;4910287;29;20206;-61
2024/01/02 10:19:40;;;;;;;0.30;0.30;;;7.00;99.90;;;;;;4917190;29;20249;-61
2024/01/02 10:22:27;;;;;;;0.30;0.30;;;7.10;99.90;;;;;;4917412;29;20166;-61
2024/01/02 10:25:04;;;;;;;0.55;0.55;;;7.10;99.90;;;;;;4917252;29;20203;-61
2024/01/02 10:27:33;;;;;;;0.30;0.30;;;7.00;99.90;;;;;;4917040;29;20202;-61
2024/01/02 10:30:10;;;;;;;0.40;0.40;;;6.80;99.90;;;;;;4916971;29;20701;-61
2024/01/02 10:32:38;;;;;;;0.98;0.50;;;6.80;99.90;;;;;;4917017;29;20576;-61
2024/01/02 10:35:20;;;;;;;0.50;0.50;;;6.90;99.90;;;;;;4917018;29;20250;-61
2024/01/02 10:38:04;;;;;;;0.30;0.30;;;7.00;99.90;;;;;;4916949;29;20202;-61
2024/01/02 10:40:30;;;;;;;0.30;0.30;;;7.20;99.90;;;;;;4916637;29;20180;-62
2024/01/02 10:43:17;;;;;;;0.30;0.30;;;7.10;99.90;;;;;;4916899;29;20230;-61
2024/01/02 10:46:12;;;;;;;0.30;0.30;;;7.20;99.90;;;;;;4916835;29;20272;-61
2024/01/02 10:48:44;;;;;;;0.65;0.65;;;7.10;99.90;;;;;;4916821;29;20221;-61
2024/01/02 10:51:22;;;;;;;0.40;0.40;;;7.00;99.90;;;;;;4916373;29;20198;-61
2024/01/02 10:53:57;;;;;;;0.73;0.73;;;7.10;99.90;;;;;;4916910;29;20193;-61
2024/01/02 10:56:43;;;;;;;0.40;0.40;;;7.10;99.90;;;;;;4926557;29;20210;-60
2024/01/02 10:59:41;;;;;;;0.40;0.40;;;7.10;99.90;;;;;;4936561;29;20237;-61
2024/01/02 11:02:17;;;;;;;0.40;0.40;;;7.00;99.90;;;;;;4921088;29;20725;-60
2024/01/02 11:04:59;;;;;;;0.40;0.40;;;7.00;99.90;;;;;;4941884;29;20189;-60
2024/01/02 11:07:34;;;;;;;0.40;0.40;;;6.90;99.90;;;;;;4947264;29;20220;-60
2024/01/02 11:10:09;;;;;;;0.50;0.40;;;7.00;99.90;;;;;;4953110;29;20161;-61
2024/01/02 11:13:03;;;;;;;0.30;0.30;;;7.10;99.90;;;;;;4953857;29;20212;-61
2024/01/02 11:15:33;;;;;;;0.40;0.40;;;7.20;99.90;;;;;;4953796;28;20556;-60
2024/01/02 11:17:59;;;;;;;0.30;0.30;;;7.10;99.90;;;;;;4953683;29;20680;-60
2024/01/02 11:20:38;;;;;;;0.30;0.30;;;7.10;99.90;;;;;;4953350;29;20280;-61
2024/01/02 11:23:13;;;;;;;0.30;0.30;;;7.10;99.90;;;;;;4953524;29;20417;-60
2024/01/02 11:26:12;;;;;;;0.40;0.40;;;7.20;99.90;;;;;;4953584;28;20191;-60
2024/01/02 11:28:40;;;;;;;0.30;0.30;;;7.20;99.90;;;;;;4923211;28;20232;-60
2024/01/02 11:31:12;;;;;;;0.30;0.30;;;7.30;99.90;;;;;;4953262;29;20188;-61
2024/01/02 11:33:46;;;;;;;0.40;0.40;;;7.40;99.90;;;;;;4953386;29;20189;-60
2024/01/02 11:36:30;;;;;;;0.52;0.52;;;7.30;99.90;;;;;;4953373;28;20279;-60
2024/01/02 11:39:05;;;;;;;0.30;0.30;;;7.40;99.90;;;;;;4953319;29;20174;-61
2024/01/02 11:41:37;;;;;;;0.40;0.40;;;7.40;99.90;;;;;;4952955;29;20263;-60
2024/01/02 11:44:43;;;;;;;2.95;0.50;;;7.60;99.90;;;;;;4953201;29;20182;-60
2024/01/02 11:47:29;;;;;;;0.30;0.30;;;7.50;99.90;;;;;;4950211;28;20212;-61
2024/01/02 11:50:01;;;;;;;0.52;0.52;;;7.50;99.90;;;;;;4939480;29;20197;-61
2024/01/02 11:52:27;;;;;;;0.30;0.30;;;7.50;99.90;;;;;;4953129;29;20177;-61
2024/01/02 11:55:18;;;;;;;0.30;0.30;;;7.40;99.90;;;;;;4941277;29;20206;-60
2024/01/02 11:57:52;;;;;;;0.30;0.30;;;7.40;99.90;;;;;;4884741;29;1133002;-61
2024/01/02 12:00:30;;;;;;;0.30;0.30;;;7.50;99.90;;;;;;4953773;29;20181;-61
2024/01/02 12:03:08;;;;;;;0.30;0.30;;;7.50;99.90;;;;;;4942508;29;20177;-61
2024/01/02 12:05:37;;;;;;;0.43;0.43;;;7.60;99.90;;;;;;4934693;29;20712;-61
2024/01/02 12:08:07;;;;;;;0.40;0.40;;;7.70;99.90;;;;;;4934782;29;20214;-61
2024/01/02 12:10:41;;;;;;;0.30;0.30;;;7.40;99.90;;;;;;4938622;29;20553;-61
2024/01/02 12:13:28;;;;;;;0.40;0.30;;;7.20;99.90;;;;;;4954029;29;20524;-61
2024/01/02 12:15:59;;;;;;;0.40;0.40;;;7.40;99.90;;;;;;4953916;29;20185;-61
2024/01/02 12:18:30;;;;;;;0.30;0.30;;;7.50;99.90;;;;;;4953855;29;20184;-61
2024/01/02 12:21:03;;;;;;;0.50;0.50;;;7.50;99.90;;;;;;4953887;29;20251;-61
2024/01/02 12:23:32;;;;;;;0.40;0.40;;;7.60;99.90;;;;;;4953840;29;20663;-61
2024/01/02 12:26:04;;;;;;;0.43;0.43;;;7.60;99.90;;;;;;4953739;29;20204;-61
2024/01/02 12:28:39;;;;;;;0.38;0.38;;;7.70;99.90;;;;;;4942639;29;20206;-61
2024/01/02 12:31:28;;;;;;;0.40;0.40;;;7.70;99.90;;;;;;4934311;29;20552;-61
2024/01/02 12:34:04;;;;;;;0.43;0.40;;;7.90;99.90;;;;;;4934468;29;20201;-61
2024/01/02 12:36:46;;;;;;;0.40;0.40;;;7.90;99.90;;;;;;4934422;29;20190;-61
2024/01/02 12:39:16;;;;;;;0.30;0.30;;;7.80;99.90;;;;;;4934501;29;20238;-61
2024/01/02 12:41:44;;;;;;;0.60;0.40;;;7.70;99.90;;;;;;4937183;29;20248;-61
2024/01/02 12:44:12;;;;;;;0.50;0.50;;;7.80;99.90;;;;;;4938361;29;20249;-61
2024/01/02 12:46:53;;;;;;;0.40;0.40;;;7.90;99.90;;;;;;4921599;29;20202;-61
2024/01/02 12:49:29;;;;;;;0.30;0.30;;;7.90;99.90;;;;;;4938386;29;20606;-61
2024/01/02 12:52:02;;;;;;;0.30;0.30;;;8.00;99.90;;;;;;4937878;29;20166;-61
2024/01/02 12:54:30;;;;;;;0.40;0.40;;;7.90;99.90;;;;;;4937751;29;20325;-61
2024/01/02 12:57:02;;;;;;;0.43;0.40;;;8.00;99.90;;;;;;4938077;29;20213;-61
2024/01/02 12:59:30;;;;;;;1.50;0.70;;;7.90;99.90;;;;;;4938033;29;20170;-61
2024/01/02 13:02:04;;;;;;;0.50;0.50;;;7.90;99.90;;;;;;4937965;29;20182;-61
2024/01/02 13:04:34;;;;;;;0.50;0.50;;;7.90;99.90;;;;;;4938014;29;20268;-62
2024/01/02 13:07:03;;;;;;;0.50;0.50;;;8.00;99.90;;;;;;4938002;29;20204;-61